Hermoso Campo, Argentina
Current Conditions -  °F | °C
As of 3:00 AM on Thursday 18 Dec 2014 (Local Time) from SARE Reporting Station
Clear Clear  
Wind Chill: 22°   Ceiling: Unl
Heat Index: 22°   Visibility: 6mi
Dew Point: 22°   Wind: 3mph
Humidity: 100%   Direction: 180°S
Pressure: 29.85"   Gusts: NA
Location:  27.71°S, 61.37°W
Report Text: SARE 180600Z 18003KT CABOK 22/22 Q1011
Loading
Personal Weather Stations






























Interactive Weather Map New forecast layout! Learn more

10-Day Weather Forecast

Advertisements
Track Severe Weather on mobile